sensor_id;sensor_type;location;lat;lon;timestamp;temperature;humidity
3940;DHT22;1984;48.312;9.244;2023-05-07T00:00:18;11.50;99.90
3940;DHT22;1984;48.312;9.244;2023-05-07T00:02:45;11.40;99.90
3940;DHT22;1984;48.312;9.244;2023-05-07T00:05:11;11.40;99.90
3940;DHT22;1984;48.312;9.244;2023-05-07T00:07:36;11.40;99.90
3940;DHT22;1984;48.312;9.244;2023-05-07T00:10:03;11.50;99.90
3940;DHT22;1984;48.312;9.244;2023-05-07T00:12:29;11.50;99.90
3940;DHT22;1984;48.312;9.244;2023-05-07T00:14:57;11.40;99.90
3940;DHT22;1984;48.312;9.244;2023-05-07T00:17:22;11.30;99.90
3940;DHT22;1984;48.312;9.244;2023-05-07T00:19:48;11.20;99.90
3940;DHT22;1984;48.312;9.244;2023-05-07T00:22:14;11.10;99.90
3940;DHT22;1984;48.312;9.244;2023-05-07T00:24:39;11.10;99.90
3940;DHT22;1984;48.312;9.244;2023-05-07T00:27:05;11.10;99.90
3940;DHT22;1984;48.312;9.244;2023-05-07T00:29:30;11.10;99.90
3940;DHT22;1984;48.312;9.244;2023-05-07T00:31:56;11.10;99.90
3940;DHT22;1984;48.312;9.244;2023-05-07T00:34:21;11.00;99.90
3940;DHT22;1984;48.312;9.244;2023-05-07T00:36:47;10.90;99.90
3940;DHT22;1984;48.312;9.244;2023-05-07T00:39:13;10.90;99.90
3940;DHT22;1984;48.312;9.244;2023-05-07T00:41:39;10.80;99.90
3940;DHT22;1984;48.312;9.244;2023-05-07T00:44:04;10.80;99.90
3940;DHT22;1984;48.312;9.244;2023-05-07T00:46:30;10.80;99.90
3940;DHT22;1984;48.312;9.244;2023-05-07T00:48:57;10.70;99.90
3940;DHT22;1984;48.312;9.244;2023-05-07T00:51:24;10.70;99.90
3940;DHT22;1984;48.312;9.244;2023-05-07T00:53:50;10.70;99.90
3940;DHT22;1984;48.312;9.244;2023-05-07T00:56:16;10.70;99.90
3940;DHT22;1984;48.312;9.244;2023-05-07T00:58:42;10.70;99.90
3940;DHT22;1984;48.312;9.244;2023-05-07T01:01:08;10.60;99.90
3940;DHT22;1984;48.312;9.244;2023-05-07T01:03:33;10.60;99.90
3940;DHT22;1984;48.312;9.244;2023-05-07T01:06:00;10.60;99.90
3940;DHT22;1984;48.312;9.244;2023-05-07T01:08:26;10.60;99.90
3940;DHT22;1984;48.312;9.244;2023-05-07T01:10:55;10.60;99.90
3940;DHT22;1984;48.312;9.244;2023-05-07T01:13:22;10.60;99.90
3940;DHT22;1984;48.312;9.244;2023-05-07T01:15:48;10.60;99.90
3940;DHT22;1984;48.312;9.244;2023-05-07T01:18:14;10.60;99.90
3940;DHT22;1984;48.312;9.244;2023-05-07T01:20:41;10.70;99.90
3940;DHT22;1984;48.312;9.244;2023-05-07T01:23:07;10.70;99.90
3940;DHT22;1984;48.312;9.244;2023-05-07T01:25:33;10.70;99.90
3940;DHT22;1984;48.312;9.244;2023-05-07T01:27:58;10.70;99.90
3940;DHT22;1984;48.312;9.244;2023-05-07T01:30:28;10.70;99.90
3940;DHT22;1984;48.312;9.244;2023-05-07T01:33:09;10.60;99.90
3940;DHT22;1984;48.312;9.244;2023-05-07T01:35:41;10.60;99.90
3940;DHT22;1984;48.312;9.244;2023-05-07T01:38:09;10.60;99.90
3940;DHT22;1984;48.312;9.244;2023-05-07T01:40:34;10.60;99.90
3940;DHT22;1984;48.312;9.244;2023-05-07T01:43:02;10.50;99.90
3940;DHT22;1984;48.312;9.244;2023-05-07T01:45:28;10.40;99.90
3940;DHT22;1984;48.312;9.244;2023-05-07T01:47:54;10.40;99.90
3940;DHT22;1984;48.312;9.244;2023-05-07T01:50:20;10.30;99.90
3940;DHT22;1984;48.312;9.244;2023-05-07T01:52:49;10.30;99.90
3940;DHT22;1984;48.312;9.244;2023-05-07T01:55:15;10.40;99.90
3940;DHT22;1984;48.312;9.244;2023-05-07T01:57:40;10.30;99.90
3940;DHT22;1984;48.312;9.244;2023-05-07T02:00:07;10.30;99.90
3940;DHT22;1984;48.312;9.244;2023-05-07T02:02:34;10.20;99.90
3940;DHT22;1984;48.312;9.244;2023-05-07T02:05:00;10.10;99.90
3940;DHT22;1984;48.312;9.244;2023-05-07T02:07:27;10.10;99.90
3940;DHT22;1984;48.312;9.244;2023-05-07T02:09:52;10.10;99.90
3940;DHT22;1984;48.312;9.244;2023-05-07T02:12:19;10.10;99.90
3940;DHT22;1984;48.312;9.244;2023-05-07T02:14:44;10.20;99.90
3940;DHT22;1984;48.312;9.244;2023-05-07T02:17:10;10.10;99.90
3940;DHT22;1984;48.312;9.244;2023-05-07T02:19:35;10.10;99.90
3940;DHT22;1984;48.312;9.244;2023-05-07T02:22:01;10.10;99.90
3940;DHT22;1984;48.312;9.244;2023-05-07T02:24:26;10.10;99.90
3940;DHT22;1984;48.312;9.244;2023-05-07T02:26:52;10.10;99.90
3940;DHT22;1984;48.312;9.244;2023-05-07T02:29:17;10.10;99.90
3940;DHT22;1984;48.312;9.244;2023-05-07T02:31:43;10.10;99.90
3940;DHT22;1984;48.312;9.244;2023-05-07T02:34:08;10.10;99.90
3940;DHT22;1984;48.312;9.244;2023-05-07T02:36:34;10.10;99.90
3940;DHT22;1984;48.312;9.244;2023-05-07T02:39:00;10.10;99.90
3940;DHT22;1984;48.312;9.244;2023-05-07T02:41:25;10.00;99.90
3940;DHT22;1984;48.312;9.244;2023-05-07T02:43:53;9.90;99.90
3940;DHT22;1984;48.312;9.244;2023-05-07T02:46:19;9.90;99.90
3940;DHT22;1984;48.312;9.244;2023-05-07T02:48:44;9.70;99.90
3940;DHT22;1984;48.312;9.244;2023-05-07T02:51:10;9.70;99.90
3940;DHT22;1984;48.312;9.244;2023-05-07T02:53:36;9.70;99.90
3940;DHT22;1984;48.312;9.244;2023-05-07T02:56:02;9.70;99.90
3940;DHT22;1984;48.312;9.244;2023-05-07T02:58:28;9.60;99.90
3940;DHT22;1984;48.312;9.244;2023-05-07T03:00:53;9.60;99.90
3940;DHT22;1984;48.312;9.244;2023-05-07T03:03:20;9.60;99.90
3940;DHT22;1984;48.312;9.244;2023-05-07T03:05:46;9.60;99.90
3940;DHT22;1984;48.312;9.244;2023-05-07T03:08:11;9.60;99.90
3940;DHT22;1984;48.312;9.244;2023-05-07T03:10:37;9.60;99.90
3940;DHT22;1984;48.312;9.244;2023-05-07T03:13:04;9.60;99.90
3940;DHT22;1984;48.312;9.244;2023-05-07T03:15:30;9.60;99.90
3940;DHT22;1984;48.312;9.244;2023-05-07T03:17:55;9.60;99.90
3940;DHT22;1984;48.312;9.244;2023-05-07T03:20:21;9.50;99.90
3940;DHT22;1984;48.312;9.244;2023-05-07T03:22:47;9.40;99.90
3940;DHT22;1984;48.312;9.244;2023-05-07T03:25:13;9.40;99.90
3940;DHT22;1984;48.312;9.244;2023-05-07T03:27:39;9.40;99.90
3940;DHT22;1984;48.312;9.244;2023-05-07T03:30:05;9.30;99.90
3940;DHT22;1984;48.312;9.244;2023-05-07T03:32:32;9.30;99.90
3940;DHT22;1984;48.312;9.244;2023-05-07T03:34:57;9.20;99.90
3940;DHT22;1984;48.312;9.244;2023-05-07T03:37:23;9.10;99.90
3940;DHT22;1984;48.312;9.244;2023-05-07T03:39:48;9.10;99.90
3940;DHT22;1984;48.312;9.244;2023-05-07T03:42:14;9.10;99.90
3940;DHT22;1984;48.312;9.244;2023-05-07T03:44:40;9.10;99.90
3940;DHT22;1984;48.312;9.244;2023-05-07T03:47:05;9.10;99.90
3940;DHT22;1984;48.312;9.244;2023-05-07T03:49:31;9.10;99.90
3940;DHT22;1984;48.312;9.244;2023-05-07T03:51:56;9.10;99.90
3940;DHT22;1984;48.312;9.244;2023-05-07T03:54:22;9.10;99.90
3940;DHT22;1984;48.312;9.244;2023-05-07T03:56:48;9.20;99.90
3940;DHT22;1984;48.312;9.244;2023-05-07T03:59:13;9.10;99.90
3940;DHT22;1984;48.312;9.244;2023-05-07T04:01:39;9.20;99.90
3940;DHT22;1984;48.312;9.244;2023-05-07T04:04:05;9.10;99.90
3940;DHT22;1984;48.312;9.244;2023-05-07T04:06:31;9.20;99.90
3940;DHT22;1984;48.312;9.244;2023-05-07T04:08:56;9.20;99.90
3940;DHT22;1984;48.312;9.244;2023-05-07T04:11:22;9.20;99.90
3940;DHT22;1984;48.312;9.244;2023-05-07T04:13:48;9.20;99.90
3940;DHT22;1984;48.312;9.244;2023-05-07T04:16:13;9.20;99.90
3940;DHT22;1984;48.312;9.244;2023-05-07T04:18:39;9.20;99.90
3940;DHT22;1984;48.312;9.244;2023-05-07T04:21:05;9.30;99.90
3940;DHT22;1984;48.312;9.244;2023-05-07T04:23:30;9.30;99.90
3940;DHT22;1984;48.312;9.244;2023-05-07T04:25:56;9.30;99.90
3940;DHT22;1984;48.312;9.244;2023-05-07T04:28:23;9.40;99.90
3940;DHT22;1984;48.312;9.244;2023-05-07T04:30:48;9.40;99.90
3940;DHT22;1984;48.312;9.244;2023-05-07T04:33:14;9.40;99.90
3940;DHT22;1984;48.312;9.244;2023-05-07T04:35:42;9.30;99.90
3940;DHT22;1984;48.312;9.244;2023-05-07T04:38:07;9.30;99.90
3940;DHT22;1984;48.312;9.244;2023-05-07T04:40:35;9.30;99.90
3940;DHT22;1984;48.312;9.244;2023-05-07T04:43:00;9.30;99.90
3940;DHT22;1984;48.312;9.244;2023-05-07T04:45:26;9.40;99.90
3940;DHT22;1984;48.312;9.244;2023-05-07T04:47:52;9.50;99.90
3940;DHT22;1984;48.312;9.244;2023-05-07T04:50:17;9.50;99.90
3940;DHT22;1984;48.312;9.244;2023-05-07T04:52:44;9.60;99.90
3940;DHT22;1984;48.312;9.244;2023-05-07T04:55:10;9.80;99.90
3940;DHT22;1984;48.312;9.244;2023-05-07T04:57:36;9.90;99.90
3940;DHT22;1984;48.312;9.244;2023-05-07T05:00:03;10.00;99.90
3940;DHT22;1984;48.312;9.244;2023-05-07T05:02:29;10.00;99.90
3940;DHT22;1984;48.312;9.244;2023-05-07T05:04:55;10.00;99.90
3940;DHT22;1984;48.312;9.244;2023-05-07T05:07:20;10.10;99.90
3940;DHT22;1984;48.312;9.244;2023-05-07T05:09:46;10.10;99.90
3940;DHT22;1984;48.312;9.244;2023-05-07T05:12:11;10.20;99.90
3940;DHT22;1984;48.312;9.244;2023-05-07T05:14:37;10.30;99.90
3940;DHT22;1984;48.312;9.244;2023-05-07T05:17:02;10.40;99.90
3940;DHT22;1984;48.312;9.244;2023-05-07T05:19:28;10.50;99.90
3940;DHT22;1984;48.312;9.244;2023-05-07T05:21:53;10.50;99.90
3940;DHT22;1984;48.312;9.244;2023-05-07T05:24:19;10.60;99.90
3940;DHT22;1984;48.312;9.244;2023-05-07T05:26:45;10.70;99.90
3940;DHT22;1984;48.312;9.244;2023-05-07T05:29:10;10.80;99.90
3940;DHT22;1984;48.312;9.244;2023-05-07T05:31:36;10.90;99.90
3940;DHT22;1984;48.312;9.244;2023-05-07T05:34:02;11.00;99.90
3940;DHT22;1984;48.312;9.244;2023-05-07T05:36:28;11.00;99.90
3940;DHT22;1984;48.312;9.244;2023-05-07T05:38:53;11.00;99.90
3940;DHT22;1984;48.312;9.244;2023-05-07T05:41:19;11.10;99.90
3940;DHT22;1984;48.312;9.244;2023-05-07T05:43:44;11.10;99.90
3940;DHT22;1984;48.312;9.244;2023-05-07T05:46:09;11.20;99.90
3940;DHT22;1984;48.312;9.244;2023-05-07T05:48:36;11.30;99.90
3940;DHT22;1984;48.312;9.244;2023-05-07T05:51:02;11.40;99.90
3940;DHT22;1984;48.312;9.244;2023-05-07T05:53:28;11.60;99.90
3940;DHT22;1984;48.312;9.244;2023-05-07T05:55:53;11.70;99.90
3940;DHT22;1984;48.312;9.244;2023-05-07T05:58:19;11.80;99.90
3940;DHT22;1984;48.312;9.244;2023-05-07T06:00:46;11.90;99.90
3940;DHT22;1984;48.312;9.244;2023-05-07T06:03:13;12.10;99.90
3940;DHT22;1984;48.312;9.244;2023-05-07T06:05:39;12.20;99.90
3940;DHT22;1984;48.312;9.244;2023-05-07T06:08:04;12.40;99.90
3940;DHT22;1984;48.312;9.244;2023-05-07T06:10:30;12.50;99.90
3940;DHT22;1984;48.312;9.244;2023-05-07T06:12:56;12.50;99.90
3940;DHT22;1984;48.312;9.244;2023-05-07T06:15:21;12.60;99.90
3940;DHT22;1984;48.312;9.244;2023-05-07T06:17:47;12.80;99.90
3940;DHT22;1984;48.312;9.244;2023-05-07T06:20:12;13.00;99.90
3940;DHT22;1984;48.312;9.244;2023-05-07T06:22:38;13.30;99.90
3940;DHT22;1984;48.312;9.244;2023-05-07T06:25:03;13.60;99.90
3940;DHT22;1984;48.312;9.244;2023-05-07T06:27:29;14.00;99.90
3940;DHT22;1984;48.312;9.244;2023-05-07T06:29:54;14.40;99.90
3940;DHT22;1984;48.312;9.244;2023-05-07T06:32:20;14.80;99.90
3940;DHT22;1984;48.312;9.244;2023-05-07T06:34:45;15.10;99.90
3940;DHT22;1984;48.312;9.244;2023-05-07T06:37:11;15.40;99.90
3940;DHT22;1984;48.312;9.244;2023-05-07T06:39:38;15.60;99.90
3940;DHT22;1984;48.312;9.244;2023-05-07T06:42:03;15.90;99.90
3940;DHT22;1984;48.312;9.244;2023-05-07T06:44:30;16.20;99.90
3940;DHT22;1984;48.312;9.244;2023-05-07T06:46:55;16.60;99.90
3940;DHT22;1984;48.312;9.244;2023-05-07T06:49:21;17.00;99.90
3940;DHT22;1984;48.312;9.244;2023-05-07T06:51:47;17.30;99.90
3940;DHT22;1984;48.312;9.244;2023-05-07T06:54:12;17.50;99.90
3940;DHT22;1984;48.312;9.244;2023-05-07T06:56:38;17.70;99.90
3940;DHT22;1984;48.312;9.244;2023-05-07T06:59:03;18.00;99.90
3940;DHT22;1984;48.312;9.244;2023-05-07T07:01:29;18.20;99.90
3940;DHT22;1984;48.312;9.244;2023-05-07T07:03:54;18.30;99.90
3940;DHT22;1984;48.312;9.244;2023-05-07T07:06:20;18.30;99.90
3940;DHT22;1984;48.312;9.244;2023-05-07T07:08:46;18.10;99.90
3940;DHT22;1984;48.312;9.244;2023-05-07T07:11:11;18.00;99.90
3940;DHT22;1984;48.312;9.244;2023-05-07T07:13:37;17.90;99.90
3940;DHT22;1984;48.312;9.244;2023-05-07T07:16:03;17.90;99.90
3940;DHT22;1984;48.312;9.244;2023-05-07T07:18:28;17.70;99.90
3940;DHT22;1984;48.312;9.244;2023-05-07T07:20:54;17.60;99.90
3940;DHT22;1984;48.312;9.244;2023-05-07T07:23:20;17.40;99.90
3940;DHT22;1984;48.312;9.244;2023-05-07T07:25:45;17.40;99.90
3940;DHT22;1984;48.312;9.244;2023-05-07T07:28:11;17.50;99.90
3940;DHT22;1984;48.312;9.244;2023-05-07T07:30:37;17.80;99.90
3940;DHT22;1984;48.312;9.244;2023-05-07T07:33:03;18.10;99.90
3940;DHT22;1984;48.312;9.244;2023-05-07T07:35:29;18.50;99.90
3940;DHT22;1984;48.312;9.244;2023-05-07T07:37:55;19.10;99.90
3940;DHT22;1984;48.312;9.244;2023-05-07T07:40:21;19.50;99.90
3940;DHT22;1984;48.312;9.244;2023-05-07T07:42:47;19.40;99.90
3940;DHT22;1984;48.312;9.244;2023-05-07T07:45:12;19.30;99.90
3940;DHT22;1984;48.312;9.244;2023-05-07T07:47:39;19.10;99.90
3940;DHT22;1984;48.312;9.244;2023-05-07T07:50:05;19.30;99.90
3940;DHT22;1984;48.312;9.244;2023-05-07T07:52:31;20.10;99.90
3940;DHT22;1984;48.312;9.244;2023-05-07T07:54:56;21.00;99.90
3940;DHT22;1984;48.312;9.244;2023-05-07T07:57:22;21.70;99.90
3940;DHT22;1984;48.312;9.244;2023-05-07T07:59:47;22.50;99.90
3940;DHT22;1984;48.312;9.244;2023-05-07T08:02:13;23.50;99.90
3940;DHT22;1984;48.312;9.244;2023-05-07T08:04:38;24.70;99.90
3940;DHT22;1984;48.312;9.244;2023-05-07T08:07:04;25.50;99.90
3940;DHT22;1984;48.312;9.244;2023-05-07T08:09:29;26.10;99.90
3940;DHT22;1984;48.312;9.244;2023-05-07T08:11:55;26.40;99.90
3940;DHT22;1984;48.312;9.244;2023-05-07T08:14:21;26.20;99.90
3940;DHT22;1984;48.312;9.244;2023-05-07T08:16:46;24.80;99.90
3940;DHT22;1984;48.312;9.244;2023-05-07T08:19:12;23.50;99.90
3940;DHT22;1984;48.312;9.244;2023-05-07T08:21:40;23.00;99.90
3940;DHT22;1984;48.312;9.244;2023-05-07T08:24:06;22.70;99.90
3940;DHT22;1984;48.312;9.244;2023-05-07T08:26:32;23.20;99.90
3940;DHT22;1984;48.312;9.244;2023-05-07T08:28:57;24.20;99.90
3940;DHT22;1984;48.312;9.244;2023-05-07T08:31:23;25.20;99.90
3940;DHT22;1984;48.312;9.244;2023-05-07T08:33:48;25.40;99.90
3940;DHT22;1984;48.312;9.244;2023-05-07T08:36:14;25.40;99.90
3940;DHT22;1984;48.312;9.244;2023-05-07T08:38:39;26.00;99.90
3940;DHT22;1984;48.312;9.244;2023-05-07T08:41:12;26.60;98.20
3940;DHT22;1984;48.312;9.244;2023-05-07T08:43:41;26.90;96.60
3940;DHT22;1984;48.312;9.244;2023-05-07T08:46:09;27.00;96.50
3940;DHT22;1984;48.312;9.244;2023-05-07T08:48:35;26.80;96.50
3940;DHT22;1984;48.312;9.244;2023-05-07T08:51:01;27.60;96.00
3940;DHT22;1984;48.312;9.244;2023-05-07T08:53:26;28.30;94.60
3940;DHT22;1984;48.312;9.244;2023-05-07T08:55:53;28.30;94.10
3940;DHT22;1984;48.312;9.244;2023-05-07T08:58:18;27.70;93.50
3940;DHT22;1984;48.312;9.244;2023-05-07T09:00:44;27.00;94.60
3940;DHT22;1984;48.312;9.244;2023-05-07T09:03:09;26.50;94.50
3940;DHT22;1984;48.312;9.244;2023-05-07T09:05:39;25.40;95.90
3940;DHT22;1984;48.312;9.244;2023-05-07T09:08:06;25.20;96.60
3940;DHT22;1984;48.312;9.244;2023-05-07T09:10:35;25.60;95.60
3940;DHT22;1984;48.312;9.244;2023-05-07T09:13:02;25.70;95.60
3940;DHT22;1984;48.312;9.244;2023-05-07T09:15:28;25.50;96.20
3940;DHT22;1984;48.312;9.244;2023-05-07T09:17:53;26.50;94.80
3940;DHT22;1984;48.312;9.244;2023-05-07T09:20:19;27.70;93.50
3940;DHT22;1984;48.312;9.244;2023-05-07T09:22:45;28.20;93.60
3940;DHT22;1984;48.312;9.244;2023-05-07T09:25:11;28.50;92.10
3940;DHT22;1984;48.312;9.244;2023-05-07T09:27:36;28.30;91.40
3940;DHT22;1984;48.312;9.244;2023-05-07T09:30:06;28.30;91.60
3940;DHT22;1984;48.312;9.244;2023-05-07T09:32:35;28.70;89.70
3940;DHT22;1984;48.312;9.244;2023-05-07T09:35:01;29.10;91.30
3940;DHT22;1984;48.312;9.244;2023-05-07T09:37:30;29.70;90.90
3940;DHT22;1984;48.312;9.244;2023-05-07T09:39:56;30.10;87.60
3940;DHT22;1984;48.312;9.244;2023-05-07T09:42:25;30.20;85.80
3940;DHT22;1984;48.312;9.244;2023-05-07T09:44:52;30.00;86.30
3940;DHT22;1984;48.312;9.244;2023-05-07T09:47:24;30.30;89.20
3940;DHT22;1984;48.312;9.244;2023-05-07T09:49:50;30.50;86.70
3940;DHT22;1984;48.312;9.244;2023-05-07T09:52:21;30.80;85.90
3940;DHT22;1984;48.312;9.244;2023-05-07T09:54:47;30.60;85.20
3940;DHT22;1984;48.312;9.244;2023-05-07T09:57:15;30.30;85.60
3940;DHT22;1984;48.312;9.244;2023-05-07T09:59:43;29.30;84.60
3940;DHT22;1984;48.312;9.244;2023-05-07T10:02:09;28.30;86.40
3940;DHT22;1984;48.312;9.244;2023-05-07T10:04:35;28.30;88.70
3940;DHT22;1984;48.312;9.244;2023-05-07T10:07:03;27.90;89.40
3940;DHT22;1984;48.312;9.244;2023-05-07T10:09:29;26.90;90.30
3940;DHT22;1984;48.312;9.244;2023-05-07T10:11:56;26.50;90.70
3940;DHT22;1984;48.312;9.244;2023-05-07T10:14:23;27.10;90.00
3940;DHT22;1984;48.312;9.244;2023-05-07T10:16:49;27.90;89.40
3940;DHT22;1984;48.312;9.244;2023-05-07T10:19:15;28.60;87.60
3940;DHT22;1984;48.312;9.244;2023-05-07T10:21:51;28.30;85.90
3940;DHT22;1984;48.312;9.244;2023-05-07T10:24:26;27.80;89.00
3940;DHT22;1984;48.312;9.244;2023-05-07T10:26:53;26.90;90.30
3940;DHT22;1984;48.312;9.244;2023-05-07T10:32:35;26.70;90.60
3940;DHT22;1984;48.312;9.244;2023-05-07T10:35:03;27.80;91.00
3940;DHT22;1984;48.312;9.244;2023-05-07T10:37:30;28.40;89.60
3940;DHT22;1984;48.312;9.244;2023-05-07T10:39:56;27.90;88.50
3940;DHT22;1984;48.312;9.244;2023-05-07T10:42:22;27.90;87.50
3940;DHT22;1984;48.312;9.244;2023-05-07T10:44:48;27.80;89.60
3940;DHT22;1984;48.312;9.244;2023-05-07T10:47:16;27.60;88.40
3940;DHT22;1984;48.312;9.244;2023-05-07T10:52:21;26.60;89.50
3940;DHT22;1984;48.312;9.244;2023-05-07T10:54:46;26.00;91.00
3940;DHT22;1984;48.312;9.244;2023-05-07T10:57:32;25.50;91.10
3940;DHT22;1984;48.312;9.244;2023-05-07T10:59:58;24.60;92.40
3940;DHT22;1984;48.312;9.244;2023-05-07T11:05:25;23.00;95.80
3940;DHT22;1984;48.312;9.244;2023-05-07T11:07:55;22.60;95.90
3940;DHT22;1984;48.312;9.244;2023-05-07T11:10:21;22.30;96.80
3940;DHT22;1984;48.312;9.244;2023-05-07T11:15:14;22.00;97.00
3940;DHT22;1984;48.312;9.244;2023-05-07T11:18:00;21.60;97.60
3940;DHT22;1984;48.312;9.244;2023-05-07T11:20:51;21.20;98.20
3940;DHT22;1984;48.312;9.244;2023-05-07T11:26:02;21.00;98.90
3940;DHT22;1984;48.312;9.244;2023-05-07T11:28:29;20.90;99.00
3940;DHT22;1984;48.312;9.244;2023-05-07T11:30:56;20.80;99.70
3940;DHT22;1984;48.312;9.244;2023-05-07T11:33:22;20.70;99.40
3940;DHT22;1984;48.312;9.244;2023-05-07T11:35:48;20.60;99.90
3940;DHT22;1984;48.312;9.244;2023-05-07T11:38:15;20.40;99.90
3940;DHT22;1984;48.312;9.244;2023-05-07T11:40:58;20.40;99.90
3940;DHT22;1984;48.312;9.244;2023-05-07T11:43:27;20.40;99.90
3940;DHT22;1984;48.312;9.244;2023-05-07T11:45:53;20.30;99.90
3940;DHT22;1984;48.312;9.244;2023-05-07T11:48:20;20.20;99.90
3940;DHT22;1984;48.312;9.244;2023-05-07T11:50:54;20.10;99.90
3940;DHT22;1984;48.312;9.244;2023-05-07T11:53:25;20.00;99.90
3940;DHT22;1984;48.312;9.244;2023-05-07T11:55:52;19.90;99.90
3940;DHT22;1984;48.312;9.244;2023-05-07T11:58:22;19.90;99.90
3940;DHT22;1984;48.312;9.244;2023-05-07T12:00:54;20.00;99.90
3940;DHT22;1984;48.312;9.244;2023-05-07T12:03:20;20.00;99.90
3940;DHT22;1984;48.312;9.244;2023-05-07T12:05:47;20.10;99.90
3940;DHT22;1984;48.312;9.244;2023-05-07T12:08:16;20.10;99.90
3940;DHT22;1984;48.312;9.244;2023-05-07T12:10:42;20.10;99.90
3940;DHT22;1984;48.312;9.244;2023-05-07T12:13:18;20.00;99.90
3940;DHT22;1984;48.312;9.244;2023-05-07T12:15:44;19.90;99.90
3940;DHT22;1984;48.312;9.244;2023-05-07T12:18:11;19.80;99.90
3940;DHT22;1984;48.312;9.244;2023-05-07T12:20:37;19.80;99.90
3940;DHT22;1984;48.312;9.244;2023-05-07T12:23:03;19.70;99.90
3940;DHT22;1984;48.312;9.244;2023-05-07T12:25:36;19.70;99.90
3940;DHT22;1984;48.312;9.244;2023-05-07T12:28:02;19.60;99.90
3940;DHT22;1984;48.312;9.244;2023-05-07T12:30:31;19.60;99.90
3940;DHT22;1984;48.312;9.244;2023-05-07T12:32:56;19.60;99.90
3940;DHT22;1984;48.312;9.244;2023-05-07T12:35:29;19.60;99.90
3940;DHT22;1984;48.312;9.244;2023-05-07T12:37:56;19.60;99.90
3940;DHT22;1984;48.312;9.244;2023-05-07T12:40:21;19.60;99.90
3940;DHT22;1984;48.312;9.244;2023-05-07T12:42:53;19.70;99.90
3940;DHT22;1984;48.312;9.244;2023-05-07T12:45:20;19.70;99.90
3940;DHT22;1984;48.312;9.244;2023-05-07T12:47:46;19.70;99.90
3940;DHT22;1984;48.312;9.244;2023-05-07T12:50:13;19.70;99.90
3940;DHT22;1984;48.312;9.244;2023-05-07T12:52:39;19.80;99.90
3940;DHT22;1984;48.312;9.244;2023-05-07T12:55:07;19.80;99.90
3940;DHT22;1984;48.312;9.244;2023-05-07T12:57:43;19.80;99.90
3940;DHT22;1984;48.312;9.244;2023-05-07T13:00:09;19.80;99.90
3940;DHT22;1984;48.312;9.244;2023-05-07T13:02:38;19.80;99.90
3940;DHT22;1984;48.312;9.244;2023-05-07T13:05:04;19.80;99.90
3940;DHT22;1984;48.312;9.244;2023-05-07T13:07:29;19.80;99.90
3940;DHT22;1984;48.312;9.244;2023-05-07T13:09:55;19.80;99.90
3940;DHT22;1984;48.312;9.244;2023-05-07T13:12:20;19.70;99.90
3940;DHT22;1984;48.312;9.244;2023-05-07T13:14:46;19.70;99.90
3940;DHT22;1984;48.312;9.244;2023-05-07T13:17:11;19.60;99.90
3940;DHT22;1984;48.312;9.244;2023-05-07T13:19:37;19.60;99.90
3940;DHT22;1984;48.312;9.244;2023-05-07T13:22:03;19.50;99.90
3940;DHT22;1984;48.312;9.244;2023-05-07T13:24:29;19.40;99.90
3940;DHT22;1984;48.312;9.244;2023-05-07T13:26:54;19.20;99.90
3940;DHT22;1984;48.312;9.244;2023-05-07T13:29:20;18.70;99.90
3940;DHT22;1984;48.312;9.244;2023-05-07T13:31:50;18.20;99.90
3940;DHT22;1984;48.312;9.244;2023-05-07T13:34:16;17.70;99.90
3940;DHT22;1984;48.312;9.244;2023-05-07T13:36:41;17.20;99.90
3940;DHT22;1984;48.312;9.244;2023-05-07T13:39:07;16.80;99.90
3940;DHT22;1984;48.312;9.244;2023-05-07T13:41:33;16.50;99.90
3940;DHT22;1984;48.312;9.244;2023-05-07T13:43:58;16.40;99.90
3940;DHT22;1984;48.312;9.244;2023-05-07T13:46:24;16.20;99.90
3940;DHT22;1984;48.312;9.244;2023-05-07T13:48:49;16.10;99.90
3940;DHT22;1984;48.312;9.244;2023-05-07T13:51:16;16.00;99.90
3940;DHT22;1984;48.312;9.244;2023-05-07T13:53:42;16.00;99.90
3940;DHT22;1984;48.312;9.244;2023-05-07T13:56:07;16.00;99.90
3940;DHT22;1984;48.312;9.244;2023-05-07T13:58:33;15.90;99.90
3940;DHT22;1984;48.312;9.244;2023-05-07T14:00:58;15.80;99.90
3940;DHT22;1984;48.312;9.244;2023-05-07T14:03:24;15.80;99.90
3940;DHT22;1984;48.312;9.244;2023-05-07T14:05:49;15.60;99.90
3940;DHT22;1984;48.312;9.244;2023-05-07T14:08:15;15.50;99.90
3940;DHT22;1984;48.312;9.244;2023-05-07T14:10:42;15.40;99.90
3940;DHT22;1984;48.312;9.244;2023-05-07T14:13:08;15.20;99.90
3940;DHT22;1984;48.312;9.244;2023-05-07T14:15:33;15.20;99.90
3940;DHT22;1984;48.312;9.244;2023-05-07T14:18:00;15.10;99.90
3940;DHT22;1984;48.312;9.244;2023-05-07T14:20:25;15.00;99.90
3940;DHT22;1984;48.312;9.244;2023-05-07T14:22:51;14.90;99.90
3940;DHT22;1984;48.312;9.244;2023-05-07T14:25:17;14.90;99.90
3940;DHT22;1984;48.312;9.244;2023-05-07T14:27:42;14.80;99.90
3940;DHT22;1984;48.312;9.244;2023-05-07T14:30:08;14.80;99.90
3940;DHT22;1984;48.312;9.244;2023-05-07T14:32:34;14.70;99.90
3940;DHT22;1984;48.312;9.244;2023-05-07T14:35:00;14.70;99.90
3940;DHT22;1984;48.312;9.244;2023-05-07T14:37:25;14.70;99.90
3940;DHT22;1984;48.312;9.244;2023-05-07T14:39:51;14.50;99.90
3940;DHT22;1984;48.312;9.244;2023-05-07T14:42:17;14.40;99.90
3940;DHT22;1984;48.312;9.244;2023-05-07T14:44:42;14.30;99.90
3940;DHT22;1984;48.312;9.244;2023-05-07T14:47:10;14.40;99.90
3940;DHT22;1984;48.312;9.244;2023-05-07T14:49:35;14.40;99.90
3940;DHT22;1984;48.312;9.244;2023-05-07T14:52:01;14.30;99.90
3940;DHT22;1984;48.312;9.244;2023-05-07T14:54:26;14.30;99.90
3940;DHT22;1984;48.312;9.244;2023-05-07T14:56:52;14.30;99.90
3940;DHT22;1984;48.312;9.244;2023-05-07T14:59:18;14.40;99.90
3940;DHT22;1984;48.312;9.244;2023-05-07T15:01:47;14.50;99.90
3940;DHT22;1984;48.312;9.244;2023-05-07T15:04:12;14.60;99.90
3940;DHT22;1984;48.312;9.244;2023-05-07T15:06:38;14.80;99.90
3940;DHT22;1984;48.312;9.244;2023-05-07T15:09:04;15.00;99.90
3940;DHT22;1984;48.312;9.244;2023-05-07T15:11:29;15.20;99.90
3940;DHT22;1984;48.312;9.244;2023-05-07T15:13:55;15.40;99.90
3940;DHT22;1984;48.312;9.244;2023-05-07T15:16:21;15.50;99.90
3940;DHT22;1984;48.312;9.244;2023-05-07T15:18:47;15.80;99.90
3940;DHT22;1984;48.312;9.244;2023-05-07T15:21:12;16.00;99.90
3940;DHT22;1984;48.312;9.244;2023-05-07T15:23:38;16.30;99.90
3940;DHT22;1984;48.312;9.244;2023-05-07T15:26:04;16.40;99.90
3940;DHT22;1984;48.312;9.244;2023-05-07T15:28:30;16.60;99.90
3940;DHT22;1984;48.312;9.244;2023-05-07T15:30:56;16.70;99.90
3940;DHT22;1984;48.312;9.244;2023-05-07T15:33:23;16.70;99.90
3940;DHT22;1984;48.312;9.244;2023-05-07T15:35:48;16.80;99.90
3940;DHT22;1984;48.312;9.244;2023-05-07T15:38:14;16.90;99.90
3940;DHT22;1984;48.312;9.244;2023-05-07T15:40:39;16.90;99.90
3940;DHT22;1984;48.312;9.244;2023-05-07T15:43:09;16.90;99.90
3940;DHT22;1984;48.312;9.244;2023-05-07T15:45:39;17.00;99.90
3940;DHT22;1984;48.312;9.244;2023-05-07T15:48:06;17.00;99.90
3940;DHT22;1984;48.312;9.244;2023-05-07T15:50:31;17.10;99.90
3940;DHT22;1984;48.312;9.244;2023-05-07T15:52:57;17.10;99.90
3940;DHT22;1984;48.312;9.244;2023-05-07T15:55:23;17.10;99.90
3940;DHT22;1984;48.312;9.244;2023-05-07T15:57:48;17.10;99.90
3940;DHT22;1984;48.312;9.244;2023-05-07T16:00:14;17.00;99.90
3940;DHT22;1984;48.312;9.244;2023-05-07T16:02:41;17.10;99.90
3940;DHT22;1984;48.312;9.244;2023-05-07T16:05:07;17.00;99.90
3940;DHT22;1984;48.312;9.244;2023-05-07T16:07:37;17.00;99.90
3940;DHT22;1984;48.312;9.244;2023-05-07T16:10:03;17.00;99.90
3940;DHT22;1984;48.312;9.244;2023-05-07T16:12:29;16.90;99.90